createdAt,value
2018-10-21T00:01:03.307Z,79.27
2018-10-21T00:02:10.351Z,79.49
2018-10-21T00:03:16.991Z,79.17
2018-10-21T00:04:23.210Z,79.48
2018-10-21T00:05:29.193Z,79.18
2018-10-21T00:06:35.173Z,79.36
2018-10-21T00:07:41.213Z,78.96
2018-10-21T00:08:47.310Z,79.34
2018-10-21T00:09:53.337Z,79.76
2018-10-21T00:10:59.326Z,79.65
2018-10-21T00:12:04.726Z,79.97
2018-10-21T00:13:10.823Z,79.79
2018-10-21T00:14:17.130Z,79.64
2018-10-21T00:15:24.514Z,79.68
2018-10-21T00:16:30.790Z,79.47
2018-10-21T00:17:36.890Z,79.86
2018-10-21T00:18:43.178Z,79.91
2018-10-21T00:19:49.176Z,80.08
2018-10-21T00:20:55.313Z,80.06
2018-10-21T00:22:01.608Z,79.63
2018-10-21T00:23:07.759Z,79.67
2018-10-21T00:24:13.835Z,79.53
2018-10-21T00:25:19.807Z,79.90
2018-10-21T00:26:25.883Z,80.43
2018-10-21T00:27:31.964Z,80.45
2018-10-21T00:28:38.063Z,80.50
2018-10-21T00:29:44.181Z,80.61
2018-10-21T00:30:50.468Z,80.77
2018-10-21T00:31:56.589Z,81.23
2018-10-21T00:33:02.967Z,81.10
2018-10-21T00:34:10.289Z,81.33
2018-10-21T00:35:15.845Z,81.52
2018-10-21T00:36:21.942Z,81.80
2018-10-21T00:37:28.023Z,81.79
2018-10-21T00:38:34.391Z,81.85
2018-10-21T00:39:40.310Z,81.18
2018-10-21T00:40:46.679Z,81.62
2018-10-21T00:41:52.753Z,81.63
2018-10-21T00:42:59.093Z,81.58
2018-10-21T00:44:04.714Z,81.88
2018-10-21T00:45:11.163Z,82.21
2018-10-21T00:46:17.409Z,82.23
2018-10-21T00:47:23.497Z,81.70
2018-10-21T00:48:29.536Z,81.81
2018-10-21T00:49:35.612Z,81.89
2018-10-21T00:50:41.549Z,81.65
2018-10-21T00:51:47.655Z,81.66
2018-10-21T00:52:53.877Z,81.82
2018-10-21T00:54:00.252Z,81.43
2018-10-21T00:55:13.846Z,81.06
2018-10-21T00:56:22.027Z,81.53
2018-10-21T00:57:28.085Z,81.85
2018-10-21T00:58:34.416Z,82.43
2018-10-21T00:59:40.739Z,82.33
2018-10-21T01:00:47.119Z,82.38
2018-10-21T01:01:51.978Z,82.45
2018-10-21T01:02:58.395Z,82.48
2018-10-21T01:04:04.645Z,82.20
2018-10-21T01:05:10.577Z,82.18
2018-10-21T01:06:16.302Z,82.71
2018-10-21T01:07:22.354Z,83.12
2018-10-21T01:08:28.677Z,83.00
2018-10-21T01:09:34.953Z,82.67
2018-10-21T01:10:41.266Z,82.26
2018-10-21T01:11:47.410Z,82.02
2018-10-21T01:12:53.685Z,81.97
2018-10-21T01:13:59.889Z,82.14
2018-10-21T01:15:05.467Z,82.33
2018-10-21T01:16:16.553Z,82.75
2018-10-21T01:17:26.921Z,82.75
2018-10-21T01:18:33.162Z,82.33
2018-10-21T01:19:39.254Z,82.25
2018-10-21T01:20:45.282Z,82.48
2018-10-21T01:21:51.240Z,82.71
2018-10-21T01:22:57.580Z,82.52
2018-10-21T01:24:03.893Z,82.68
2018-10-21T01:25:09.853Z,82.80
2018-10-21T01:26:15.865Z,82.74
2018-10-21T01:27:21.899Z,82.95
2018-10-21T01:28:28.219Z,83.25
2018-10-21T01:29:34.518Z,83.58
2018-10-21T01:30:40.842Z,83.21
2018-10-21T01:31:46.960Z,83.51
2018-10-21T01:32:53.275Z,82.98
2018-10-21T01:33:59.570Z,83.05
2018-10-21T01:35:05.197Z,83.34
2018-10-21T01:36:11.310Z,83.51
2018-10-21T01:37:17.245Z,83.60
2018-10-21T01:38:23.891Z,82.59
2018-10-21T01:39:29.826Z,82.85
2018-10-21T01:40:35.133Z,83.21
2018-10-21T01:41:41.173Z,83.25
2018-10-21T01:42:47.205Z,82.73
2018-10-21T01:43:53.523Z,82.18
2018-10-21T01:45:00.530Z,82.30
2018-10-21T01:46:06.853Z,82.81
2018-10-21T01:47:12.965Z,83.06
2018-10-21T01:48:19.455Z,82.79
2018-10-21T01:49:25.778Z,82.15
2018-10-21T01:50:32.107Z,82.46
2018-10-21T01:51:38.214Z,82.93
2018-10-21T01:52:44.509Z,83.30
2018-10-21T01:53:50.835Z,83.22
2018-10-21T01:54:56.894Z,82.87
2018-10-21T01:56:02.916Z,82.75
2018-10-21T01:57:09.102Z,83.18
2018-10-21T01:58:15.671Z,82.51
2018-10-21T01:59:21.978Z,82.82
2018-10-21T02:00:28.302Z,83.05
2018-10-21T02:01:34.374Z,82.84
2018-10-21T02:02:40.711Z,82.99
2018-10-21T02:03:46.494Z,83.36
2018-10-21T02:04:52.695Z,83.41
2018-10-21T02:05:58.601Z,82.67
2018-10-21T02:07:04.153Z,82.44
2018-10-21T02:08:10.328Z,82.64
2018-10-21T02:09:16.316Z,82.77
2018-10-21T02:10:22.757Z,83.29
2018-10-21T02:11:28.704Z,83.45
2018-10-21T02:12:34.594Z,83.70
2018-10-21T02:13:40.810Z,83.93
2018-10-21T02:14:47.036Z,84.26
2018-10-21T02:15:53.210Z,83.68
2018-10-21T02:16:59.081Z,83.15
2018-10-21T02:18:04.299Z,83.56
2018-10-21T02:19:10.525Z,83.58
2018-10-21T02:20:16.465Z,83.55
2018-10-21T02:21:22.408Z,83.85
2018-10-21T02:22:28.641Z,83.84
2018-10-21T02:23:34.831Z,84.03
2018-10-21T02:24:41.031Z,83.69
2018-10-21T02:25:47.229Z,83.66
2018-10-21T02:26:53.231Z,83.67
2018-10-21T02:27:59.594Z,84.02
2018-10-21T02:29:05.156Z,84.11
2018-10-21T02:30:11.463Z,83.69
2018-10-21T02:31:17.376Z,83.69
2018-10-21T02:32:23.285Z,84.02
2018-10-21T02:33:29.631Z,84.38
2018-10-21T02:34:35.925Z,84.42
2018-10-21T02:35:42.107Z,84.30
2018-10-21T02:36:48.056Z,84.35
2018-10-21T02:37:53.953Z,84.55
2018-10-21T02:39:00.253Z,84.38
2018-10-21T02:40:05.607Z,84.37
2018-10-21T02:43:02.377Z,84.28
2018-10-21T02:44:08.753Z,84.33
2018-10-21T02:45:15.099Z,84.64
2018-10-21T02:46:20.637Z,85.04
2018-10-21T02:47:26.587Z,85.44
2018-10-21T02:48:32.590Z,84.64
2018-10-21T02:49:38.960Z,84.75
2018-10-21T02:50:45.399Z,85.01
2018-10-21T02:51:50.847Z,84.52
2018-10-21T02:52:57.156Z,84.52
2018-10-21T02:54:03.569Z,85.02
2018-10-21T02:55:10.694Z,85.42
2018-10-21T02:56:16.678Z,85.70
2018-10-21T02:57:22.683Z,85.80
2018-10-21T02:58:28.995Z,85.61
2018-10-21T02:59:35.153Z,85.34
2018-10-21T03:00:41.453Z,84.68
2018-10-21T03:01:47.647Z,84.62
2018-10-21T03:02:53.670Z,84.46
2018-10-21T03:03:59.985Z,85.16
2018-10-21T03:05:05.593Z,85.74
2018-10-21T03:06:11.652Z,85.60
2018-10-21T03:07:17.631Z,85.25
2018-10-21T03:08:23.609Z,85.14
2018-10-21T03:09:29.593Z,85.54
2018-10-21T03:10:35.887Z,85.67
2018-10-21T03:11:41.911Z,85.93
2018-10-21T03:12:48.187Z,86.00
2018-10-21T03:13:54.374Z,85.65
2018-10-21T03:15:00.772Z,85.40
2018-10-21T03:16:06.605Z,85.58
2018-10-21T03:17:12.749Z,84.86
2018-10-21T03:18:19.046Z,85.19
2018-10-21T03:19:25.571Z,85.05
2018-10-21T03:20:31.906Z,85.25
2018-10-21T03:21:37.940Z,85.25
2018-10-21T03:22:44.473Z,85.48
2018-10-21T03:23:51.342Z,85.33
2018-10-21T03:24:58.918Z,85.24
2018-10-21T03:26:04.268Z,85.44
2018-10-21T03:27:10.334Z,85.50
2018-10-21T03:28:16.952Z,85.49
2018-10-21T03:29:23.031Z,85.56
2018-10-21T03:30:29.055Z,85.53
2018-10-21T03:31:34.880Z,85.64
2018-10-21T03:32:41.038Z,85.54
2018-10-21T03:33:47.537Z,85.89
2018-10-21T03:34:54.109Z,86.13
2018-10-21T03:36:00.180Z,85.96
2018-10-21T03:37:05.498Z,85.92
2018-10-21T03:38:11.834Z,85.96
2018-10-21T03:39:18.139Z,86.08
2018-10-21T03:40:24.491Z,86.40
2018-10-21T03:41:30.949Z,86.20
2018-10-21T03:42:37.225Z,85.92
2018-10-21T03:43:43.233Z,85.79
2018-10-21T03:44:49.699Z,85.67
2018-10-21T03:45:56.065Z,86.05
2018-10-21T03:47:02.563Z,86.15
2018-10-21T03:48:08.977Z,85.91
2018-10-21T03:49:15.290Z,85.70
2018-10-21T03:50:21.783Z,85.74
2018-10-21T03:51:27.796Z,85.59
2018-10-21T03:52:33.816Z,85.42
2018-10-21T03:53:40.139Z,85.51
2018-10-21T03:54:45.919Z,85.53
2018-10-21T03:55:51.930Z,85.54
2018-10-21T03:56:57.974Z,84.98
2018-10-21T03:58:04.041Z,84.61
2018-10-21T03:59:10.239Z,84.00
2018-10-21T04:00:16.365Z,84.24
2018-10-21T04:01:22.389Z,84.65
2018-10-21T04:02:28.152Z,84.43
2018-10-21T04:03:33.812Z,84.77
2018-10-21T04:04:39.877Z,85.17
2018-10-21T04:05:45.963Z,84.61
2018-10-21T04:06:51.961Z,84.52
2018-10-21T04:07:57.954Z,84.52
2018-10-21T04:09:03.670Z,84.78
2018-10-21T04:10:10.066Z,84.76
2018-10-21T04:11:16.404Z,84.57
2018-10-21T04:12:22.129Z,84.38
2018-10-21T04:13:28.360Z,84.10
2018-10-21T04:14:35.266Z,84.48
2018-10-21T04:15:41.577Z,84.60
2018-10-21T04:16:47.573Z,85.19
2018-10-21T04:17:53.827Z,85.06
2018-10-21T04:18:59.792Z,84.38
2018-10-21T04:20:05.798Z,84.48
2018-10-21T04:21:12.539Z,84.38
2018-10-21T04:22:18.781Z,84.33
2018-10-21T04:23:24.920Z,84.14
2018-10-21T04:24:30.941Z,84.33
2018-10-21T04:25:37.305Z,84.37
2018-10-21T04:26:43.299Z,84.23
2018-10-21T04:27:49.565Z,84.27
2018-10-21T04:28:55.875Z,84.68
2018-10-21T04:30:02.346Z,84.83
2018-10-21T04:31:09.540Z,84.76
2018-10-21T04:32:16.111Z,84.25
2018-10-21T04:33:21.836Z,84.38
2018-10-21T04:34:27.875Z,84.00
2018-10-21T04:35:34.330Z,83.91
2018-10-21T04:36:40.519Z,84.55
2018-10-21T04:37:48.708Z,84.71
2018-10-21T04:39:06.010Z,84.74
2018-10-21T04:40:12.353Z,84.63
2018-10-21T04:41:18.875Z,84.77
2018-10-21T04:42:24.944Z,84.95
2018-10-21T04:43:31.340Z,84.50
2018-10-21T04:44:37.662Z,84.51
2018-10-21T04:45:44.005Z,84.38
2018-10-21T04:46:50.136Z,84.63
2018-10-21T04:47:56.610Z,84.81
2018-10-21T04:49:03.040Z,85.21
2018-10-21T04:50:09.355Z,85.30
2018-10-21T04:51:15.368Z,85.01
2018-10-21T04:52:21.119Z,84.58
2018-10-21T04:53:27.395Z,84.92
2018-10-21T04:54:33.723Z,85.14
2018-10-21T04:55:40.018Z,85.27
2018-10-21T04:56:46.050Z,85.82
2018-10-21T04:57:52.125Z,85.84
2018-10-21T04:58:58.096Z,86.11
2018-10-21T05:00:03.464Z,85.65
2018-10-21T05:01:09.448Z,84.94
2018-10-21T05:02:15.765Z,85.15
2018-10-21T05:03:21.855Z,85.25
2018-10-21T05:04:27.897Z,84.86
2018-10-21T05:05:33.905Z,85.44
2018-10-21T05:06:39.927Z,85.48
2018-10-21T05:07:46.215Z,85.28
2018-10-21T05:08:52.227Z,85.81
2018-10-21T05:09:58.326Z,86.31
2018-10-21T05:11:04.674Z,86.33
2018-10-21T05:12:10.710Z,86.73
2018-10-21T05:13:17.023Z,86.60
2018-10-21T05:14:23.081Z,86.85
2018-10-21T05:15:29.103Z,87.00
2018-10-21T05:16:35.265Z,87.30
2018-10-21T05:17:41.608Z,86.99
2018-10-21T05:18:47.616Z,86.81
2018-10-21T05:19:53.644Z,87.18
2018-10-21T05:20:59.714Z,87.51
2018-10-21T05:22:05.749Z,87.48
2018-10-21T05:23:12.203Z,86.60
2018-10-21T05:24:18.508Z,86.83
2018-10-21T05:25:24.808Z,86.41
2018-10-21T05:26:30.811Z,86.41
2018-10-21T05:27:36.963Z,86.75
2018-10-21T05:28:43.480Z,87.22
2018-10-21T05:29:49.500Z,87.35
2018-10-21T05:31:03.262Z,87.43
2018-10-21T05:32:14.524Z,87.42
2018-10-21T05:33:20.797Z,87.25
2018-10-21T05:34:26.899Z,87.53
2018-10-21T05:35:32.883Z,87.68
2018-10-21T05:36:38.942Z,88.02
2018-10-21T05:37:45.278Z,87.42
2018-10-21T05:38:51.454Z,86.97
2018-10-21T05:39:57.460Z,87.05
2018-10-21T05:41:03.636Z,87.36
2018-10-21T05:42:09.676Z,87.32
2018-10-21T05:43:15.677Z,87.80
2018-10-21T05:44:21.681Z,88.30
2018-10-21T05:45:27.946Z,88.61
2018-10-21T05:46:34.006Z,88.74
2018-10-21T05:47:39.684Z,89.23
2018-10-21T05:48:45.607Z,89.62
2018-10-21T05:49:51.905Z,89.31
2018-10-21T05:50:57.904Z,89.50
2018-10-21T05:52:10.385Z,89.25
2018-10-21T05:53:16.683Z,89.54
2018-10-21T05:54:22.887Z,89.17
2018-10-21T05:55:28.910Z,89.52
2018-10-21T05:56:35.098Z,89.14
2018-10-21T05:57:41.177Z,88.26
2018-10-21T05:58:47.468Z,88.00
2018-10-21T05:59:53.466Z,88.23
2018-10-21T06:00:59.711Z,88.28
2018-10-21T06:02:05.750Z,88.37
2018-10-21T06:03:11.723Z,88.22
2018-10-21T06:04:17.773Z,88.49
2018-10-21T06:05:23.292Z,89.19
2018-10-21T06:06:29.355Z,89.67
2018-10-21T06:07:35.375Z,90.20
2018-10-21T06:08:41.437Z,89.95
2018-10-21T06:09:47.871Z,89.88
2018-10-21T06:10:53.847Z,90.37
2018-10-21T06:11:59.896Z,90.58
2018-10-21T06:13:05.529Z,89.90
2018-10-21T06:14:11.543Z,89.65
2018-10-21T06:15:17.526Z,90.05
2018-10-21T06:16:23.550Z,90.41
2018-10-21T06:17:29.520Z,90.97
2018-10-21T06:18:35.510Z,90.00
2018-10-21T06:38:30.074Z,90.69
2018-10-21T06:39:36.046Z,90.64
2018-10-21T06:40:42.243Z,89.83
2018-10-21T06:41:48.263Z,89.05
2018-10-21T06:42:54.827Z,88.30
2018-10-21T06:44:01.975Z,87.61
2018-10-21T06:45:08.231Z,87.73
2018-10-21T06:46:14.971Z,88.52
2018-10-21T06:47:21.333Z,89.32
2018-10-21T06:48:28.118Z,89.43
2018-10-21T06:49:35.380Z,89.11
2018-10-21T06:50:41.463Z,88.77
2018-10-21T06:51:50.704Z,89.23
2018-10-21T06:52:57.313Z,89.47
2018-10-21T06:54:04.330Z,90.23
2018-10-21T06:55:10.719Z,90.41
2018-10-21T06:56:17.231Z,90.28
2018-10-21T06:57:24.094Z,89.61
2018-10-21T06:58:30.748Z,89.91
2018-10-21T06:59:37.290Z,88.79
2018-10-21T07:00:43.854Z,88.07
2018-10-21T07:01:50.545Z,88.30
2018-10-21T07:02:57.206Z,88.87
2018-10-21T07:04:03.794Z,88.44
2018-10-21T07:05:09.565Z,88.89
2018-10-21T07:06:16.611Z,89.59
2018-10-21T07:07:23.280Z,89.71
2018-10-21T07:08:29.456Z,89.34
2018-10-21T07:09:36.481Z,88.62
2018-10-21T07:10:43.426Z,89.52
2018-10-21T07:11:49.524Z,89.96
2018-10-21T07:12:56.054Z,89.98
2018-10-21T07:14:02.489Z,89.72
2018-10-21T07:15:09.066Z,89.47
2018-10-21T07:16:15.249Z,90.02
2018-10-21T07:17:22.001Z,90.10
2018-10-21T07:18:28.433Z,90.38
2018-10-21T07:19:35.115Z,90.60
2018-10-21T07:20:41.494Z,90.59
2018-10-21T07:21:47.651Z,90.67
2018-10-21T07:22:54.413Z,90.84
2018-10-21T07:24:01.070Z,90.80
2018-10-21T07:25:07.636Z,90.50
2018-10-21T07:26:13.571Z,90.29
2018-10-21T07:27:19.572Z,90.56
2018-10-21T07:28:25.920Z,90.54
2018-10-21T07:29:32.315Z,90.36
2018-10-21T07:30:38.996Z,90.01
2018-10-21T07:31:45.886Z,89.48
2018-10-21T07:32:52.760Z,89.84
2018-10-21T07:33:58.865Z,89.72
2018-10-21T07:35:05.324Z,89.95
2018-10-21T07:36:12.079Z,89.95
2018-10-21T07:37:19.599Z,90.09
2018-10-21T07:38:26.773Z,89.71
2018-10-21T07:39:33.586Z,89.72
2018-10-21T07:40:40.019Z,89.93
2018-10-21T07:41:47.168Z,90.12
2018-10-21T07:42:53.720Z,90.40
2018-10-21T07:44:00.094Z,90.38
2018-10-21T07:45:06.082Z,89.83
2018-10-21T07:46:12.525Z,89.66
2018-10-21T07:47:18.918Z,89.43
2018-10-21T07:48:25.826Z,88.19
2018-10-21T07:49:32.784Z,88.91
2018-10-21T07:50:39.345Z,89.39
2018-10-21T07:51:47.007Z,89.18
2018-10-21T07:53:00.158Z,88.60
2018-10-21T07:54:08.919Z,88.77
2018-10-21T07:55:16.721Z,88.88
2018-10-21T07:56:28.418Z,88.83
2018-10-21T07:57:35.328Z,88.94
2018-10-21T07:58:41.966Z,88.92
2018-10-21T07:59:51.649Z,88.59
2018-10-21T08:00:58.807Z,87.94
2018-10-21T08:02:05.454Z,86.73
2018-10-21T08:03:12.090Z,87.17
2018-10-21T08:04:18.527Z,87.41
2018-10-21T08:05:26.480Z,87.42
2018-10-21T08:08:13.170Z,87.34
2018-10-21T08:09:19.878Z,85.95
2018-10-21T08:10:26.579Z,84.91
2018-10-21T08:11:33.228Z,85.63
2018-10-21T08:12:39.195Z,86.84
2018-10-21T08:13:45.897Z,87.21
2018-10-21T08:14:52.301Z,86.91
2018-10-21T08:16:13.137Z,87.21
2018-10-21T08:21:44.737Z,84.26
2018-10-21T08:22:50.735Z,84.72
2018-10-21T08:23:57.145Z,83.74
2018-10-21T08:25:03.756Z,83.18
2018-10-21T08:26:10.268Z,83.84
2018-10-21T08:27:16.854Z,84.74
2018-10-21T08:28:23.380Z,84.38
2018-10-21T08:29:29.366Z,84.65
2018-10-21T08:30:35.395Z,85.34
2018-10-21T08:31:41.342Z,84.76
2018-10-21T08:32:47.250Z,84.52
2018-10-21T08:33:53.633Z,84.86
2018-10-21T08:34:59.820Z,84.10
2018-10-21T08:36:06.614Z,84.12
2018-10-21T08:37:13.078Z,83.69
2018-10-21T08:38:19.276Z,83.52
2018-10-21T08:39:25.540Z,82.86
2018-10-21T08:40:31.632Z,81.84
2018-10-21T08:41:37.809Z,82.31
2018-10-21T08:42:44.661Z,82.71
2018-10-21T08:43:50.597Z,83.25
2018-10-21T08:44:57.452Z,83.16
2018-10-21T08:46:03.741Z,83.78
2018-10-21T08:47:09.840Z,83.43
2018-10-21T08:48:16.151Z,83.51
2018-10-21T08:49:22.222Z,83.45
2018-10-21T08:50:30.022Z,82.94
2018-10-21T08:51:36.644Z,82.37
2018-10-21T08:52:42.570Z,82.87
2018-10-21T08:53:48.822Z,82.53
2018-10-21T08:54:55.175Z,83.16
2018-10-21T08:56:01.339Z,83.42
2018-10-21T08:57:07.721Z,83.36
2018-10-21T08:58:14.020Z,82.93
2018-10-21T08:59:20.761Z,82.73
2018-10-21T09:00:27.299Z,82.59
2018-10-21T09:01:33.468Z,82.53
2018-10-21T09:02:40.010Z,81.54
2018-10-21T09:03:46.481Z,82.22
2018-10-21T09:04:52.799Z,82.36
2018-10-21T09:05:58.900Z,82.46
2018-10-21T09:07:04.975Z,82.74
2018-10-21T09:08:11.928Z,82.18
2018-10-21T09:09:19.211Z,80.90
2018-10-21T09:10:26.137Z,79.57
2018-10-21T09:11:32.268Z,79.17
2018-10-21T09:12:39.231Z,79.85
2018-10-21T09:13:46.022Z,79.94
2018-10-21T09:14:54.057Z,79.79
2018-10-21T09:16:01.038Z,79.14
2018-10-21T09:17:08.830Z,81.25
2018-10-21T09:18:15.380Z,80.70
2018-10-21T09:19:21.366Z,80.31
2018-10-21T09:20:27.728Z,79.67
2018-10-21T09:21:33.883Z,79.91
2018-10-21T09:22:40.668Z,79.96
2018-10-21T09:23:54.963Z,79.80
2018-10-21T09:25:01.977Z,79.05
2018-10-21T09:26:09.218Z,78.65
2018-10-21T09:27:15.258Z,78.74
2018-10-21T09:28:21.373Z,78.50
2018-10-21T09:29:27.899Z,77.09
2018-10-21T09:30:33.908Z,76.22
2018-10-21T09:31:40.854Z,75.87
2018-10-21T09:32:47.188Z,78.08
2018-10-21T09:33:53.133Z,76.61
2018-10-21T09:35:01.577Z,75.50
2018-10-21T09:36:09.025Z,74.99
2018-10-21T09:37:15.397Z,74.24
2018-10-21T09:38:21.528Z,73.29
2018-10-21T09:39:27.815Z,73.43
2018-10-21T09:40:33.836Z,73.57
2018-10-21T09:41:41.175Z,75.14
2018-10-21T09:42:48.017Z,75.71
2018-10-21T09:43:54.512Z,75.94
2018-10-21T09:45:05.018Z,75.75
2018-10-21T09:46:11.400Z,76.33
2018-10-21T09:47:18.753Z,76.64
2018-10-21T09:48:24.978Z,76.34
2018-10-21T09:49:31.999Z,76.03
2018-10-21T09:50:39.093Z,75.12
2018-10-21T09:51:46.368Z,74.79
2018-10-21T09:52:52.880Z,74.48
2018-10-21T09:53:59.450Z,75.14
2018-10-21T09:55:05.138Z,74.24
2018-10-21T09:56:11.785Z,74.11
2018-10-21T09:57:18.479Z,72.44
2018-10-21T09:58:24.773Z,71.88
2018-10-21T09:59:32.193Z,72.30
2018-10-21T10:00:38.689Z,70.80
2018-10-21T10:03:18.198Z,71.50
2018-10-21T10:04:24.139Z,70.41
2018-10-21T10:05:31.480Z,70.54
2018-10-21T10:06:37.998Z,71.22
2018-10-21T10:07:44.253Z,72.76
2018-10-21T10:08:50.670Z,72.50
2018-10-21T10:09:57.359Z,72.74
2018-10-21T10:11:03.863Z,72.34
2018-10-21T10:12:11.158Z,73.03
2018-10-21T10:13:18.055Z,73.95
2018-10-21T10:14:25.146Z,73.83
2018-10-21T10:15:33.998Z,73.48
2018-10-21T10:16:40.526Z,73.87
2018-10-21T10:17:47.203Z,73.90
2018-10-21T10:18:53.656Z,74.67
2018-10-21T10:20:00.319Z,75.83
2018-10-21T10:21:06.561Z,75.65
2018-10-21T10:22:12.339Z,76.09
2018-10-21T10:23:18.937Z,75.56
2018-10-21T10:24:26.023Z,75.12
2018-10-21T10:25:32.291Z,74.56
2018-10-21T10:26:38.569Z,73.65
2018-10-21T10:27:46.869Z,73.54
2018-10-21T10:28:53.468Z,74.03
2018-10-21T10:30:00.497Z,74.63
2018-10-21T10:31:07.230Z,75.83
2018-10-21T10:32:13.819Z,75.95
2018-10-21T10:33:21.418Z,76.84
2018-10-21T10:34:27.367Z,77.58
2018-10-21T10:35:33.307Z,77.22
2018-10-21T10:36:39.700Z,76.92
2018-10-21T10:37:46.166Z,77.17
2018-10-21T10:38:52.435Z,77.40
2018-10-21T10:39:58.580Z,76.54
2018-10-21T10:41:04.357Z,75.25
2018-10-21T10:42:10.853Z,75.25
2018-10-21T10:43:17.261Z,75.62
2018-10-21T10:44:23.937Z,75.47
2018-10-21T10:45:30.426Z,74.60
2018-10-21T10:46:36.100Z,75.06
2018-10-21T10:47:42.359Z,75.47
2018-10-21T10:48:48.546Z,75.46
2018-10-21T10:49:55.545Z,75.15
2018-10-21T10:51:01.705Z,75.22
2018-10-21T10:52:08.067Z,74.51
2018-10-21T10:53:14.125Z,73.06
2018-10-21T10:54:20.319Z,71.07
2018-10-21T10:55:26.816Z,69.79
2018-10-21T10:56:33.087Z,70.98
2018-10-21T10:57:39.708Z,71.74
2018-10-21T10:58:45.430Z,70.22
2018-10-21T10:59:51.957Z,69.93
2018-10-21T11:00:58.016Z,68.83
2018-10-21T11:02:04.069Z,67.78
2018-10-21T11:03:09.886Z,68.46
2018-10-21T11:04:15.862Z,67.72
2018-10-21T11:05:22.582Z,67.71
2018-10-21T11:06:29.183Z,66.53
2018-10-21T11:07:36.438Z,65.91
2018-10-21T11:08:45.948Z,66.73
2018-10-21T11:09:53.347Z,64.05
2018-10-21T11:10:59.508Z,64.24
2018-10-21T11:12:05.725Z,64.53
2018-10-21T11:13:14.181Z,64.20
2018-10-21T11:14:21.543Z,63.72
2018-10-21T11:15:27.860Z,64.32
2018-10-21T11:16:34.754Z,64.14
2018-10-21T11:17:41.136Z,63.47
2018-10-21T11:18:47.653Z,63.06
2018-10-21T11:19:54.204Z,63.41
2018-10-21T11:21:00.137Z,62.92
2018-10-21T11:22:05.793Z,62.58
2018-10-21T11:23:12.210Z,62.71
2018-10-21T11:24:18.511Z,62.52
2018-10-21T11:25:24.156Z,62.71
2018-10-21T11:26:30.097Z,62.65
2018-10-21T11:27:36.006Z,62.61
2018-10-21T11:28:42.382Z,62.59
2018-10-21T11:29:48.727Z,63.10
2018-10-21T11:30:55.298Z,63.43
2018-10-21T11:32:02.557Z,62.75
2018-10-21T11:33:29.224Z,61.60
2018-10-21T11:34:35.689Z,60.87
2018-10-21T11:35:42.146Z,60.75
2018-10-21T11:36:55.759Z,59.40
2018-10-21T11:38:03.217Z,59.12
2018-10-21T11:39:11.139Z,59.48
2018-10-21T11:40:21.843Z,59.74
2018-10-21T11:41:32.945Z,59.78
2018-10-21T11:42:44.045Z,60.26
2018-10-21T11:43:52.541Z,60.24
2018-10-21T11:44:59.562Z,60.63
2018-10-21T11:46:06.728Z,61.24
2018-10-21T11:47:13.511Z,61.55
2018-10-21T11:48:20.846Z,62.21
2018-10-21T11:49:27.003Z,61.89
2018-10-21T11:50:36.934Z,61.79
2018-10-21T11:51:47.703Z,60.56
2018-10-21T11:52:53.894Z,60.78
2018-10-21T11:54:03.537Z,60.18
2018-10-21T11:55:09.108Z,60.04
2018-10-21T11:56:16.260Z,59.94
2018-10-21T11:57:22.673Z,59.74
2018-10-21T11:58:29.013Z,59.90
2018-10-21T11:59:35.306Z,60.78
2018-10-21T12:00:43.044Z,60.65
2018-10-21T12:01:49.791Z,61.36
2018-10-21T12:02:56.996Z,61.95
2018-10-21T12:04:03.681Z,62.60
2018-10-21T12:05:10.427Z,63.16
2018-10-21T12:06:17.313Z,63.43
2018-10-21T12:07:23.847Z,62.52
2018-10-21T12:08:31.107Z,62.24
2018-10-21T12:09:37.455Z,62.08
2018-10-21T12:10:44.890Z,61.99
2018-10-21T12:11:52.066Z,62.17
2018-10-21T12:12:58.087Z,61.73
2018-10-21T12:14:04.108Z,60.50
2018-10-21T12:15:10.446Z,59.47
2018-10-21T12:16:16.614Z,60.47
2018-10-21T12:17:23.122Z,60.39
2018-10-21T12:18:29.458Z,61.29
2018-10-21T12:19:35.797Z,59.66
2018-10-21T12:20:43.342Z,60.22
2018-10-21T12:21:49.851Z,60.05
2018-10-21T12:22:56.136Z,59.35
2018-10-21T12:24:02.944Z,59.79
2018-10-21T12:25:08.922Z,59.86
2018-10-21T12:26:15.149Z,59.65
2018-10-21T12:27:21.656Z,59.94
2018-10-21T12:28:27.898Z,59.89
2018-10-21T12:29:34.962Z,60.39
2018-10-21T12:30:41.685Z,59.47
2018-10-21T12:31:48.937Z,57.27
2018-10-21T12:32:56.760Z,58.31
2018-10-21T12:34:03.209Z,59.25
2018-10-21T12:35:09.102Z,57.74
2018-10-21T12:36:15.446Z,57.60
2018-10-21T12:37:22.250Z,57.38
2018-10-21T12:38:28.170Z,55.01
2018-10-21T12:39:35.247Z,54.34
2018-10-21T12:40:43.349Z,53.84
2018-10-21T12:41:50.030Z,52.59
2018-10-21T12:42:56.881Z,53.47
2018-10-21T12:44:03.467Z,55.08
2018-10-21T12:45:09.109Z,56.38
2018-10-21T12:46:23.534Z,56.52
2018-10-21T12:47:36.646Z,55.01
2018-10-21T12:49:32.009Z,54.27
2018-10-21T12:50:38.413Z,54.27
2018-10-21T12:51:49.800Z,51.63
2018-10-21T12:53:02.271Z,51.60
2018-10-21T12:54:11.173Z,52.20
2018-10-21T12:55:22.047Z,53.29
2018-10-21T12:56:53.661Z,51.49
2018-10-21T12:57:59.756Z,52.03
2018-10-21T12:59:07.733Z,54.65
2018-10-21T13:00:14.203Z,55.77
2018-10-21T13:01:20.363Z,54.54
2018-10-21T13:02:27.092Z,55.27
2018-10-21T13:03:34.066Z,52.35
2018-10-21T13:04:40.266Z,53.55
2018-10-21T13:05:48.536Z,54.85
2018-10-21T13:06:56.046Z,55.90
2018-10-21T13:08:03.202Z,56.21
2018-10-21T13:09:11.926Z,56.73
2018-10-21T13:10:19.446Z,55.15
2018-10-21T13:11:27.694Z,55.78
2018-10-21T13:12:35.440Z,54.65
2018-10-21T13:13:43.348Z,53.32
2018-10-21T13:14:50.864Z,54.06
2018-10-21T13:16:00.368Z,50.67
2018-10-21T13:17:08.214Z,51.11
2018-10-21T13:18:16.640Z,51.91
2018-10-21T13:19:24.503Z,52.07
2018-10-21T13:20:32.163Z,50.68
2018-10-21T13:21:40.320Z,51.53
2018-10-21T13:22:48.690Z,52.73
2018-10-21T13:23:56.548Z,50.79
2018-10-21T13:25:05.541Z,51.60
2018-10-21T13:26:13.473Z,51.98
2018-10-21T13:27:21.502Z,52.11
2018-10-21T13:28:29.648Z,51.07
2018-10-21T13:29:36.072Z,52.86
2018-10-21T13:30:42.149Z,54.05
2018-10-21T13:31:49.792Z,53.92
2018-10-21T13:32:56.044Z,53.17
2018-10-21T13:34:02.727Z,53.92
2018-10-21T13:35:10.770Z,54.59
2018-10-21T13:36:16.867Z,53.11
2018-10-21T13:37:25.318Z,53.35
2018-10-21T13:38:31.997Z,53.19
2018-10-21T13:39:38.130Z,52.83
2018-10-21T13:40:45.354Z,53.92
2018-10-21T13:41:51.778Z,52.50
2018-10-21T13:42:57.944Z,52.53
2018-10-21T13:44:05.161Z,52.85
2018-10-21T13:45:11.969Z,54.53
2018-10-21T13:46:18.112Z,54.96
2018-10-21T13:47:25.092Z,55.39
2018-10-21T13:48:31.849Z,55.97
2018-10-21T13:49:38.511Z,56.51
2018-10-21T13:50:45.342Z,56.65
2018-10-21T13:51:51.402Z,58.21
2018-10-21T13:52:58.448Z,58.06
2018-10-21T13:54:04.198Z,57.12
2018-10-21T13:55:10.314Z,57.04
2018-10-21T13:56:17.858Z,58.28
2018-10-21T13:57:24.818Z,57.78
2018-10-21T13:59:51.078Z,59.83
2018-10-21T14:00:57.266Z,58.81
2018-10-21T14:02:04.285Z,58.99
2018-10-21T14:03:10.347Z,56.41
2018-10-21T14:04:16.459Z,54.33
2018-10-21T14:05:23.735Z,55.88
2018-10-21T14:06:30.235Z,56.01
2018-10-21T14:07:36.302Z,55.98
2018-10-21T14:08:44.179Z,55.25
2018-10-21T14:09:50.499Z,55.47
2018-10-21T14:10:56.559Z,55.83
2018-10-21T14:12:04.224Z,55.43
2018-10-21T14:13:10.681Z,55.38
2018-10-21T14:14:17.028Z,54.60
2018-10-21T14:15:23.763Z,53.50
2018-10-21T14:16:30.980Z,54.81
2018-10-21T14:17:37.469Z,54.05
2018-10-21T14:18:45.191Z,52.66
2018-10-21T14:19:51.528Z,51.96
2018-10-21T14:20:58.660Z,53.66
2018-10-21T14:22:04.669Z,54.06
2018-10-21T14:23:11.671Z,53.85
2018-10-21T14:24:17.282Z,55.53
2018-10-21T14:25:23.204Z,55.56
2018-10-21T14:26:31.105Z,55.22
2018-10-21T14:27:37.704Z,53.25
2018-10-21T14:28:44.906Z,53.97
2018-10-21T14:29:52.513Z,54.12
2018-10-21T14:30:58.596Z,54.25
2018-10-21T14:32:05.325Z,55.22
2018-10-21T14:33:13.161Z,55.51
2018-10-21T14:34:19.485Z,54.92
2018-10-21T14:35:26.378Z,54.57
2018-10-21T14:36:33.497Z,54.51
2018-10-21T14:37:39.650Z,54.35
2018-10-21T14:38:47.124Z,55.39
2018-10-21T14:39:53.689Z,55.64
2018-10-21T14:41:00.896Z,55.09
2018-10-21T14:42:08.667Z,55.25
2018-10-21T14:43:16.022Z,55.72
2018-10-21T14:44:22.350Z,55.81
2018-10-21T14:45:29.238Z,55.59
2018-10-21T14:46:36.852Z,55.17
2018-10-21T14:47:42.798Z,55.48
2018-10-21T14:48:50.181Z,56.94
2018-10-21T14:50:01.719Z,56.00